Time;durP1;ratioP1;P1;durP2;ratioP2;P2;SDS_P1;SDS_P2;PMS_P1;PMS_P2;Temp;Humidity;BMP_temperature;BMP_pressure;BME280_temperature;BME280_humidity;BME280_pressure;Samples;Min_cycle;Max_cycle;Signal;HPM_P1;HPM_P2
2023/12/13 00:00:12;;;;;;;1999.90;999.90;;;8.00;99.90;;;;;;5051209;28;21057;-77
2023/12/13 00:02:38;;;;;;;1999.90;999.90;;;8.00;99.90;;;;;;5047193;28;20443;-76
2023/12/13 00:05:06;;;;;;;1999.90;999.90;;;8.10;99.90;;;;;;5050304;28;20487;-76
2023/12/13 00:07:33;;;;;;;1999.90;999.90;;;8.00;99.90;;;;;;5050102;28;20409;-76
2023/12/13 00:10:00;;;;;;;1999.90;999.90;;;8.00;99.90;;;;;;5053142;28;20932;-77
2023/12/13 00:12:26;;;;;;;1999.90;999.90;;;8.20;99.90;;;;;;5045374;28;20411;-76
2023/12/13 00:14:53;;;;;;;1999.90;999.90;;;8.20;99.90;;;;;;5042246;28;21020;-77
2023/12/13 00:17:21;;;;;;;1999.90;999.90;;;8.20;99.90;;;;;;5049577;28;20429;-75
2023/12/13 00:19:48;;;;;;;1999.90;999.90;;;8.10;99.90;;;;;;5047894;28;20452;-78
2023/12/13 00:22:14;;;;;;;1999.90;999.90;;;8.40;99.90;;;;;;5048009;28;20496;-79
2023/12/13 00:24:41;;;;;;;1999.90;999.90;;;8.30;99.90;;;;;;5057154;28;20413;-77
2023/12/13 00:27:07;;;;;;;1999.90;999.90;;;8.10;99.90;;;;;;5048439;28;20855;-75
2023/12/13 00:29:34;;;;;;;1999.90;999.90;;;8.20;99.90;;;;;;5048028;28;20413;-76
2023/12/13 00:32:01;;;;;;;1999.90;999.90;;;8.40;99.90;;;;;;5051343;28;20526;-76
2023/12/13 00:34:29;;;;;;;1999.90;999.90;;;8.40;99.90;;;;;;5054345;28;20502;-77
2023/12/13 00:36:56;;;;;;;1999.90;999.90;;;8.60;99.90;;;;;;5054485;28;20417;-75
2023/12/13 00:39:22;;;;;;;1999.90;999.90;;;8.50;99.90;;;;;;5054220;28;20420;-76
2023/12/13 00:41:49;;;;;;;1999.90;999.90;;;8.50;99.90;;;;;;5055280;28;20429;-75
2023/12/13 00:44:16;;;;;;;1999.90;999.90;;;8.50;99.90;;;;;;5052944;28;20459;-74
2023/12/13 00:46:42;;;;;;;1999.90;999.90;;;8.50;99.90;;;;;;5051692;28;20445;-76
2023/12/13 00:49:09;;;;;;;1999.90;999.90;;;8.50;99.90;;;;;;5053735;28;20901;-75
2023/12/13 00:51:37;;;;;;;1999.90;999.90;;;8.40;99.90;;;;;;5045667;28;20519;-76
2023/12/13 00:54:04;;;;;;;1999.90;999.90;;;8.40;99.90;;;;;;5053886;28;20437;-76
2023/12/13 00:56:31;;;;;;;1999.90;999.90;;;8.20;99.90;;;;;;5053978;28;20879;-77
2023/12/13 00:58:58;;;;;;;1999.90;999.90;;;8.30;99.90;;;;;;5053552;28;20475;-76
2023/12/13 01:01:25;;;;;;;1999.90;999.90;;;8.00;99.90;;;;;;5050619;28;20511;-76
2023/12/13 01:03:51;;;;;;;1999.90;999.90;;;8.30;99.90;;;;;;5053708;28;20410;-76
2023/12/13 01:06:18;;;;;;;1999.90;999.90;;;8.50;99.90;;;;;;5045423;28;20417;-75
2023/12/13 01:08:46;;;;;;;1999.90;999.90;;;8.60;99.90;;;;;;5055823;28;20467;-79
2023/12/13 01:11:12;;;;;;;1999.90;999.90;;;8.70;99.90;;;;;;5056806;28;20970;-79
2023/12/13 01:13:41;;;;;;;1999.90;999.90;;;8.50;99.90;;;;;;5052689;28;20935;-80
2023/12/13 01:16:09;;;;;;;1999.90;999.90;;;8.20;99.90;;;;;;5057214;28;20486;-79
2023/12/13 01:18:39;;;;;;;1999.90;999.90;;;8.30;99.90;;;;;;5059794;28;20475;-77
2023/12/13 01:21:05;;;;;;;1999.90;999.90;;;8.00;99.90;;;;;;5055620;28;20419;-76
2023/12/13 01:23:31;;;;;;;1999.90;999.90;;;8.20;99.90;;;;;;5054388;28;20413;-77
2023/12/13 01:25:59;;;;;;;1999.90;999.90;;;7.70;99.90;;;;;;5055548;28;20436;-78
2023/12/13 01:28:26;;;;;;;1999.90;999.90;;;7.90;99.90;;;;;;5053533;28;20930;-77
2023/12/13 01:30:53;;;;;;;1999.90;999.90;;;7.80;99.90;;;;;;5052302;28;20437;-76
2023/12/13 01:33:20;;;;;;;1999.90;999.90;;;7.60;99.90;;;;;;5052146;28;20496;-77
2023/12/13 01:35:46;;;;;;;1999.90;999.90;;;7.70;99.90;;;;;;5053931;28;20416;-77
2023/12/13 01:38:13;;;;;;;1999.90;999.90;;;7.70;99.90;;;;;;5052611;28;20814;-77
2023/12/13 01:40:50;;;;;;;1999.90;999.90;;;7.60;99.90;;;;;;5046165;28;20414;-78
2023/12/13 01:43:23;;;;;;;1999.90;999.90;;;7.60;99.90;;;;;;5044904;28;20496;-77
2023/12/13 01:45:50;;;;;;;1999.90;999.90;;;7.70;99.90;;;;;;5049993;28;20864;-77
2023/12/13 01:48:17;;;;;;;1999.90;999.90;;;7.60;99.90;;;;;;5052365;28;20836;-78
2023/12/13 01:50:44;;;;;;;1999.90;999.90;;;7.50;99.90;;;;;;5052490;28;20413;-78
2023/12/13 01:53:11;;;;;;;1999.90;999.90;;;7.40;99.90;;;;;;5052549;28;20890;-78
2023/12/13 01:55:39;;;;;;;1999.90;999.90;;;7.30;99.90;;;;;;5052713;28;20425;-78
2023/12/13 01:58:05;;;;;;;1999.90;999.90;;;7.40;99.90;;;;;;5043980;28;20860;-76
2023/12/13 02:00:34;;;;;;;1999.90;999.90;;;7.40;99.90;;;;;;5052183;28;20432;-77
2023/12/13 02:03:01;;;;;;;1999.90;999.90;;;7.20;99.90;;;;;;5052687;28;20417;-76
2023/12/13 02:05:29;;;;;;;1999.90;999.90;;;7.30;99.90;;;;;;5055533;28;20440;-77
2023/12/13 02:07:55;;;;;;;1999.90;999.90;;;7.60;99.90;;;;;;5053850;28;20417;-77
2023/12/13 02:10:22;;;;;;;1999.90;999.90;;;7.40;99.90;;;;;;5052515;28;20413;-76
2023/12/13 02:12:50;;;;;;;1999.90;999.90;;;7.30;99.90;;;;;;5052488;28;20416;-77
2023/12/13 02:15:18;;;;;;;1999.90;999.90;;;7.30;99.90;;;;;;5047209;28;20433;-77
2023/12/13 02:17:50;;;;;;;1999.90;999.90;;;7.30;99.90;;;;;;5051863;28;20500;-76
2023/12/13 02:20:17;;;;;;;1999.90;999.90;;;7.20;99.90;;;;;;5050259;28;20907;-77
2023/12/13 02:22:45;;;;;;;1999.90;999.90;;;7.20;99.90;;;;;;5052152;28;20471;-77
2023/12/13 02:25:15;;;;;;;1999.90;999.90;;;7.30;99.90;;;;;;5052137;28;20405;-77
2023/12/13 02:27:42;;;;;;;1999.90;999.90;;;7.30;99.90;;;;;;5054205;28;20431;-76
2023/12/13 02:30:10;;;;;;;1999.90;999.90;;;7.40;99.90;;;;;;5051773;28;20418;-76
2023/12/13 02:32:36;;;;;;;1999.90;999.90;;;7.30;99.90;;;;;;5051681;28;20524;-77
2023/12/13 02:35:04;;;;;;;1999.90;999.90;;;7.50;99.90;;;;;;5051969;28;20508;-77
2023/12/13 02:37:30;;;;;;;1999.90;999.90;;;7.40;99.90;;;;;;5051893;28;20424;-76
2023/12/13 02:39:59;;;;;;;1999.90;999.90;;;7.40;99.90;;;;;;5043363;28;20411;-76
2023/12/13 02:42:25;;;;;;;1999.90;999.90;;;7.30;99.90;;;;;;5049351;28;20435;-77
2023/12/13 02:44:52;;;;;;;1999.90;999.90;;;7.40;99.90;;;;;;5047821;28;20482;-76
2023/12/13 02:47:21;;;;;;;1999.90;999.90;;;7.40;99.90;;;;;;5051703;28;20414;-76
2023/12/13 02:49:47;;;;;;;1999.90;999.90;;;7.70;99.90;;;;;;5051544;28;20827;-77
2023/12/13 02:52:14;;;;;;;1999.90;999.90;;;7.80;99.90;;;;;;5051578;28;20413;-72
2023/12/13 02:54:40;;;;;;;1999.90;999.90;;;7.60;99.90;;;;;;5051352;28;20432;-76
2023/12/13 02:57:08;;;;;;;1999.90;999.90;;;7.50;99.90;;;;;;5049590;28;20484;-76
2023/12/13 02:59:35;;;;;;;1999.90;999.90;;;7.50;99.90;;;;;;5051190;28;20441;-74
2023/12/13 03:02:02;;;;;;;1999.90;999.90;;;7.50;99.90;;;;;;5043312;28;20411;-76
2023/12/13 03:04:28;;;;;;;1999.90;999.90;;;7.40;99.90;;;;;;5051397;28;20409;-76
2023/12/13 03:06:55;;;;;;;1999.90;999.90;;;7.50;99.90;;;;;;5051070;28;20409;-76
2023/12/13 03:09:21;;;;;;;1999.90;999.90;;;7.50;99.90;;;;;;5050944;28;20417;-74
2023/12/13 03:11:48;;;;;;;1999.90;999.90;;;7.50;99.90;;;;;;5042234;28;20446;-76
2023/12/13 03:14:16;;;;;;;1999.90;999.90;;;7.50;99.90;;;;;;5042852;28;20422;-75
2023/12/13 03:16:43;;;;;;;1999.90;999.90;;;7.60;99.90;;;;;;5051079;28;20414;-76
2023/12/13 03:19:08;;;;;;;1999.90;999.90;;;7.50;99.90;;;;;;5048213;28;21449;-77
2023/12/13 03:21:35;;;;;;;1999.90;999.90;;;7.80;99.90;;;;;;5045516;28;20414;-76
2023/12/13 03:24:02;;;;;;;1999.90;999.90;;;7.70;99.90;;;;;;5050806;28;20417;-77
2023/12/13 03:26:29;;;;;;;1999.90;999.90;;;7.70;99.90;;;;;;5044051;28;20845;-76
2023/12/13 03:28:55;;;;;;;1999.90;999.90;;;7.70;99.90;;;;;;5051532;28;20417;-78
2023/12/13 03:31:23;;;;;;;1999.90;999.90;;;7.80;99.90;;;;;;5051267;28;20440;-77
2023/12/13 03:33:50;;;;;;;1999.90;999.90;;;7.80;99.90;;;;;;5050630;28;20888;-77
2023/12/13 03:36:17;;;;;;;1999.90;999.90;;;8.00;99.90;;;;;;5051479;28;20405;-76
2023/12/13 03:38:45;;;;;;;1999.90;999.90;;;8.00;99.90;;;;;;5050733;28;20834;-77
2023/12/13 03:41:11;;;;;;;1999.90;999.90;;;8.00;99.90;;;;;;5047784;28;20520;-77
2023/12/13 03:43:38;;;;;;;1999.90;999.90;;;7.80;99.90;;;;;;5049775;28;20479;-76
2023/12/13 03:46:05;;;;;;;1999.90;999.90;;;7.80;99.90;;;;;;5050461;28;20405;-76
2023/12/13 03:48:33;;;;;;;1999.90;999.90;;;7.80;99.90;;;;;;5051601;28;20459;-76
2023/12/13 03:51:01;;;;;;;1999.90;999.90;;;7.80;99.90;;;;;;5050626;28;20830;-76
2023/12/13 03:53:28;;;;;;;1999.90;999.90;;;7.90;99.90;;;;;;5048645;28;20417;-77
2023/12/13 03:55:54;;;;;;;1999.90;999.90;;;7.90;99.90;;;;;;5048374;28;20486;-76
2023/12/13 03:58:21;;;;;;;1999.90;999.90;;;7.90;99.90;;;;;;5050403;28;20464;-76
2023/12/13 04:00:48;;;;;;;1999.90;999.90;;;7.80;99.90;;;;;;5050525;28;20421;-76
2023/12/13 04:03:14;;;;;;;1999.90;999.90;;;8.00;99.90;;;;;;5050319;28;20470;-77
2023/12/13 04:05:42;;;;;;;1999.90;999.90;;;8.10;99.90;;;;;;5050333;28;20464;-76
2023/12/13 04:08:09;;;;;;;1999.90;999.90;;;8.10;99.90;;;;;;5049160;28;20413;-76
2023/12/13 04:10:36;;;;;;;1999.90;999.90;;;8.20;99.90;;;;;;5045673;28;20518;-77
2023/12/13 04:13:02;;;;;;;1999.90;999.90;;;8.40;99.90;;;;;;5050150;28;20838;-76
2023/12/13 04:15:29;;;;;;;1999.90;999.90;;;8.50;99.90;;;;;;5050081;28;20479;-77
2023/12/13 04:17:55;;;;;;;1999.90;999.90;;;8.80;99.90;;;;;;5049696;28;20467;-76
2023/12/13 04:20:22;;;;;;;1999.90;999.90;;;8.80;99.90;;;;;;5050320;28;20447;-75
2023/12/13 04:22:50;;;;;;;1999.90;999.90;;;8.80;99.90;;;;;;5043539;28;20431;-76
2023/12/13 04:25:17;;;;;;;1999.90;999.90;;;8.70;99.90;;;;;;5042849;28;20467;-74
2023/12/13 04:27:45;;;;;;;1999.90;999.90;;;8.70;99.90;;;;;;5050169;28;20413;-73
2023/12/13 04:30:12;;;;;;;1999.90;999.90;;;8.70;99.90;;;;;;5050312;28;20417;-77
2023/12/13 04:32:39;;;;;;;1999.90;999.90;;;8.70;99.90;;;;;;5051338;28;20414;-77
2023/12/13 04:35:07;;;;;;;1999.90;999.90;;;8.70;99.90;;;;;;5050650;28;21019;-76
2023/12/13 04:37:33;;;;;;;1999.90;999.90;;;8.70;99.90;;;;;;5053948;28;20433;-76
2023/12/13 04:40:02;;;;;;;1999.90;999.90;;;8.60;99.90;;;;;;5050261;28;20463;-75
2023/12/13 04:42:29;;;;;;;1999.90;999.90;;;8.60;99.90;;;;;;5050129;28;20420;-73
2023/12/13 04:44:55;;;;;;;1999.90;999.90;;;8.60;99.90;;;;;;5050194;28;20405;-76
2023/12/13 04:47:22;;;;;;;1999.90;999.90;;;8.50;99.90;;;;;;5050108;28;20467;-77
2023/12/13 04:49:49;;;;;;;1999.90;999.90;;;8.50;99.90;;;;;;5050011;28;20409;-76
2023/12/13 04:52:15;;;;;;;1999.90;999.90;;;8.40;99.90;;;;;;5043097;28;20475;-76
2023/12/13 04:54:42;;;;;;;1999.90;999.90;;;8.40;99.90;;;;;;5050053;28;20425;-76
2023/12/13 04:57:10;;;;;;;1999.90;999.90;;;8.30;99.90;;;;;;5041672;28;20413;-77
2023/12/13 04:59:36;;;;;;;1999.90;999.90;;;8.40;99.90;;;;;;5050079;28;20413;-77
2023/12/13 05:02:03;;;;;;;1999.90;999.90;;;8.50;99.90;;;;;;5050088;28;20479;-77
2023/12/13 05:04:30;;;;;;;1999.90;999.90;;;8.50;99.90;;;;;;5041852;28;20432;-77
2023/12/13 05:06:56;;;;;;;1999.90;999.90;;;8.40;99.90;;;;;;5040760;28;20931;-76
2023/12/13 05:09:23;;;;;;;1999.90;999.90;;;8.30;99.90;;;;;;5052839;28;20417;-76
2023/12/13 05:11:50;;;;;;;1999.90;999.90;;;8.20;99.90;;;;;;5045156;28;20424;-75
2023/12/13 05:14:18;;;;;;;1999.90;999.90;;;8.10;99.90;;;;;;5053937;28;20463;-77
2023/12/13 05:16:44;;;;;;;1999.90;999.90;;;8.10;99.90;;;;;;5054174;28;20468;-77
2023/12/13 05:19:11;;;;;;;1999.90;999.90;;;8.00;99.90;;;;;;5051758;28;20441;-77
2023/12/13 05:21:38;;;;;;;1999.90;999.90;;;8.10;99.90;;;;;;5053395;28;20414;-77
2023/12/13 05:24:04;;;;;;;1999.90;999.90;;;8.00;99.90;;;;;;5051318;28;20470;-77
2023/12/13 05:26:31;;;;;;;1999.90;999.90;;;8.00;99.90;;;;;;5047102;28;20807;-76
2023/12/13 05:28:58;;;;;;;1999.90;999.90;;;8.00;99.90;;;;;;5053309;28;20452;-75
2023/12/13 05:31:26;;;;;;;1999.90;999.90;;;8.00;99.90;;;;;;5053356;28;20445;-76
2023/12/13 05:33:52;;;;;;;1999.90;999.90;;;7.90;99.90;;;;;;5051030;28;20483;-76
2023/12/13 05:36:20;;;;;;;1999.90;999.90;;;7.80;99.90;;;;;;5052812;28;20422;-76
2023/12/13 05:38:47;;;;;;;1999.90;999.90;;;7.80;99.90;;;;;;5052703;28;20510;-76
2023/12/13 05:41:13;;;;;;;1999.90;999.90;;;7.70;99.90;;;;;;5050107;28;20490;-77
2023/12/13 05:43:40;;;;;;;1999.90;999.90;;;7.70;99.90;;;;;;5048095;28;20490;-74
2023/12/13 05:46:08;;;;;;;1999.90;999.90;;;7.70;99.90;;;;;;5052603;28;20487;-75
2023/12/13 05:48:36;;;;;;;1999.90;999.90;;;7.70;99.90;;;;;;5051728;28;20803;-77
2023/12/13 05:51:02;;;;;;;1999.90;999.90;;;7.90;99.90;;;;;;5052390;28;20969;-76
2023/12/13 05:53:31;;;;;;;1999.90;999.90;;;7.80;99.90;;;;;;5053119;28;20463;-75
2023/12/13 05:55:57;;;;;;;1999.90;999.90;;;7.80;99.90;;;;;;5044627;28;20421;-76
2023/12/13 05:58:24;;;;;;;1999.90;999.90;;;7.80;99.90;;;;;;5052442;28;20421;-75
2023/12/13 06:00:51;;;;;;;1999.90;999.90;;;7.80;99.90;;;;;;5052533;28;20409;-76
2023/12/13 06:03:17;;;;;;;1999.90;999.90;;;7.80;99.90;;;;;;5049836;28;20433;-76
2023/12/13 06:05:44;;;;;;;1999.90;999.90;;;7.80;99.90;;;;;;5052449;28;20413;-76
2023/12/13 06:08:11;;;;;;;1999.90;999.90;;;7.80;99.90;;;;;;5052293;28;20442;-77
2023/12/13 06:10:38;;;;;;;1999.90;999.90;;;7.90;99.90;;;;;;5052292;28;20956;-76
2023/12/13 06:13:04;;;;;;;1999.90;999.90;;;7.90;99.90;;;;;;5052277;28;20414;-76
2023/12/13 06:15:32;;;;;;;1999.90;999.90;;;8.00;99.90;;;;;;5052274;28;20432;-76
2023/12/13 06:17:59;;;;;;;1999.90;999.90;;;7.80;99.90;;;;;;5051303;28;20547;-76
2023/12/13 06:20:26;;;;;;;1999.90;999.90;;;7.80;99.90;;;;;;5052157;28;20420;-72
2023/12/13 06:22:54;;;;;;;1999.90;999.90;;;7.80;99.90;;;;;;5052035;28;20834;-76
2023/12/13 06:25:20;;;;;;;1999.90;999.90;;;7.80;99.90;;;;;;5052399;28;20482;-76
2023/12/13 06:27:47;;;;;;;1999.90;999.90;;;7.90;99.90;;;;;;5044117;28;20433;-76
2023/12/13 06:30:14;;;;;;;1999.90;999.90;;;7.80;99.90;;;;;;5043374;28;20945;-75
2023/12/13 06:32:41;;;;;;;1999.90;999.90;;;7.80;99.90;;;;;;5049234;28;20453;-73
2023/12/13 06:35:08;;;;;;;1999.90;999.90;;;7.90;99.90;;;;;;5052322;28;20437;-77
2023/12/13 06:37:34;;;;;;;1999.90;999.90;;;7.80;99.90;;;;;;5051738;28;20538;-76
2023/12/13 06:40:03;;;;;;;1999.90;999.90;;;7.90;99.90;;;;;;5049914;28;20883;-75
2023/12/13 06:42:29;;;;;;;1999.90;999.90;;;8.00;99.90;;;;;;5050575;28;20505;-75
2023/12/13 06:44:56;;;;;;;1999.90;999.90;;;8.00;99.90;;;;;;5048454;28;20427;-76
2023/12/13 06:47:23;;;;;;;1999.90;999.90;;;8.00;99.90;;;;;;5051623;28;20447;-75
2023/12/13 06:49:49;;;;;;;1999.90;999.90;;;8.10;99.90;;;;;;5051117;28;20413;-76
2023/12/13 06:52:16;;;;;;;1999.90;999.90;;;8.10;99.90;;;;;;5051524;28;20636;-75
2023/12/13 06:54:43;;;;;;;1999.90;999.90;;;8.00;99.90;;;;;;5052742;28;20467;-75
2023/12/13 06:57:12;;;;;;;1999.90;999.90;;;8.10;99.90;;;;;;5052022;28;20923;-79
2023/12/13 06:59:38;;;;;;;1999.90;999.90;;;8.20;99.90;;;;;;5053288;28;20429;-77
2023/12/13 07:02:06;;;;;;;1999.90;999.90;;;8.30;99.90;;;;;;5053768;28;20420;-78
2023/12/13 07:04:35;;;;;;;1999.90;999.90;;;8.40;99.90;;;;;;5056243;28;20426;-78
2023/12/13 07:07:01;;;;;;;1999.90;999.90;;;8.40;99.90;;;;;;5053800;28;20416;-77
2023/12/13 07:09:29;;;;;;;1999.90;999.90;;;8.60;99.90;;;;;;5050596;28;20409;-77
2023/12/13 07:11:55;;;;;;;1999.90;999.90;;;8.60;99.90;;;;;;5050845;28;20486;-77
2023/12/13 07:14:23;;;;;;;1999.90;999.90;;;8.70;99.90;;;;;;5049052;28;20429;-75
2023/12/13 07:16:50;;;;;;;1999.90;999.90;;;8.70;99.90;;;;;;5049195;28;20427;-71
2023/12/13 07:19:16;;;;;;;1999.90;999.90;;;8.80;99.90;;;;;;5048641;28;20463;-75
2023/12/13 07:21:43;;;;;;;1999.90;999.90;;;8.90;99.90;;;;;;5049854;28;20407;-75
2023/12/13 07:24:11;;;;;;;1999.90;999.90;;;9.00;99.90;;;;;;5043882;28;20476;-76
2023/12/13 07:26:38;;;;;;;1999.90;999.90;;;8.90;99.90;;;;;;5049520;28;20479;-76
2023/12/13 07:29:05;;;;;;;1999.90;999.90;;;8.90;99.90;;;;;;5050307;28;20421;-73
2023/12/13 07:31:38;;;;;;;1999.90;999.90;;;9.00;99.90;;;;;;5050019;28;20424;-72
2023/12/13 07:34:04;;;;;;;1999.90;999.90;;;9.00;99.90;;;;;;5050105;28;20444;-75
2023/12/13 07:36:31;;;;;;;1999.90;999.90;;;9.10;99.90;;;;;;5034959;28;20485;-75
2023/12/13 07:38:57;;;;;;;1999.90;999.90;;;9.00;99.90;;;;;;5047149;28;20413;-75
2023/12/13 07:41:25;;;;;;;1999.90;999.90;;;9.00;99.90;;;;;;5046514;28;20968;-76
2023/12/13 07:43:52;;;;;;;1999.90;999.90;;;9.00;99.90;;;;;;5050363;28;20925;-81
2023/12/13 07:46:18;;;;;;;1999.90;999.90;;;9.00;99.90;;;;;;5051687;28;20520;-76
2023/12/13 07:48:47;;;;;;;1999.90;999.90;;;9.00;99.90;;;;;;5049809;28;20409;-75
2023/12/13 07:51:14;;;;;;;1999.90;999.90;;;9.10;99.90;;;;;;5048885;28;20431;-76
2023/12/13 07:53:41;;;;;;;1999.90;999.90;;;9.20;99.90;;;;;;5045818;28;21183;-76
2023/12/13 07:56:08;;;;;;;1999.90;999.90;;;9.10;99.90;;;;;;5048443;28;20437;-75
2023/12/13 07:58:35;;;;;;;1999.90;999.90;;;9.10;99.90;;;;;;5048734;28;20416;-76
2023/12/13 08:01:02;;;;;;;1999.90;999.90;;;9.10;99.90;;;;;;5043906;28;20509;-75
2023/12/13 08:03:29;;;;;;;1999.90;999.90;;;9.20;99.90;;;;;;5046066;28;20604;-76
2023/12/13 08:05:57;;;;;;;1999.90;999.90;;;9.20;99.90;;;;;;5043253;28;20433;-74
2023/12/13 08:08:24;;;;;;;1999.90;999.90;;;9.50;99.90;;;;;;5050253;28;20447;-75
2023/12/13 08:10:52;;;;;;;1999.90;999.90;;;9.70;99.90;;;;;;5050551;28;20409;-76
2023/12/13 08:13:19;;;;;;;1999.90;999.90;;;9.60;99.90;;;;;;5050470;28;20508;-74
2023/12/13 08:15:48;;;;;;;1999.90;999.90;;;9.60;99.90;;;;;;5050205;28;20839;-75
2023/12/13 08:18:14;;;;;;;1999.90;999.90;;;9.70;99.90;;;;;;5047946;28;20413;-76
2023/12/13 08:20:41;;;;;;;1999.90;999.90;;;9.70;99.90;;;;;;5045402;28;20491;-76
2023/12/13 08:23:09;;;;;;;1999.90;999.90;;;9.80;99.90;;;;;;5050616;28;20764;-76
2023/12/13 08:25:35;;;;;;;1999.90;999.90;;;9.80;99.90;;;;;;5050468;28;20413;-76
2023/12/13 08:28:02;;;;;;;1999.90;999.90;;;10.00;99.90;;;;;;5048854;28;20439;-75
2023/12/13 08:30:29;;;;;;;1999.90;999.90;;;9.90;99.90;;;;;;5048610;28;20946;-76
2023/12/13 08:32:55;;;;;;;1999.90;999.90;;;9.80;99.90;;;;;;5043278;28;20438;-75
2023/12/13 08:35:22;;;;;;;1999.90;999.90;;;9.80;99.90;;;;;;5049055;28;20534;-76
2023/12/13 08:37:49;;;;;;;1999.90;999.90;;;9.70;99.90;;;;;;5050332;28;20429;-74
2023/12/13 08:40:17;;;;;;;1999.90;999.90;;;9.90;99.90;;;;;;5049376;28;20433;-76
2023/12/13 08:42:44;;;;;;;1999.90;999.90;;;9.90;99.90;;;;;;5052216;28;21017;-76
2023/12/13 08:45:11;;;;;;;1999.90;999.90;;;9.90;99.90;;;;;;5049566;28;20490;-73
2023/12/13 08:47:38;;;;;;;1999.90;999.90;;;9.90;99.90;;;;;;5051975;28;20426;-75
2023/12/13 08:50:05;;;;;;;1999.90;999.90;;;9.90;99.90;;;;;;5052992;28;20429;-75
2023/12/13 08:52:32;;;;;;;1999.90;999.90;;;9.90;99.90;;;;;;5051423;28;20795;-76
2023/12/13 08:54:59;;;;;;;1999.90;999.90;;;9.90;99.90;;;;;;5056784;28;20463;-75
2023/12/13 08:57:27;;;;;;;1999.90;999.90;;;9.90;99.90;;;;;;5054372;28;20433;-75
2023/12/13 08:59:53;;;;;;;1999.90;999.90;;;10.00;99.90;;;;;;5053942;28;20424;-75
2023/12/13 09:02:20;;;;;;;1999.90;999.90;;;10.10;99.90;;;;;;5046425;28;20625;-76
2023/12/13 09:04:47;;;;;;;1999.90;999.90;;;10.30;99.90;;;;;;5054203;28;20417;-75
2023/12/13 09:07:14;;;;;;;1999.90;999.90;;;10.40;99.90;;;;;;5050786;28;20486;-75
2023/12/13 09:09:40;;;;;;;1999.90;999.90;;;10.70;99.90;;;;;;5045010;28;20887;-76
2023/12/13 09:12:07;;;;;;;1999.90;999.90;;;10.70;99.90;;;;;;5053751;28;20409;-77
2023/12/13 09:14:35;;;;;;;1999.90;999.90;;;11.10;99.90;;;;;;5052882;28;20776;-76
2023/12/13 09:17:03;;;;;;;1999.90;999.90;;;10.70;99.90;;;;;;5053975;28;20834;-76
2023/12/13 09:19:30;;;;;;;1999.90;999.90;;;10.70;99.90;;;;;;5054184;28;20441;-76
2023/12/13 09:21:56;;;;;;;1999.90;999.90;;;10.70;99.90;;;;;;5050326;28;20478;-76
2023/12/13 09:24:23;;;;;;;1999.90;999.90;;;10.70;99.90;;;;;;5054120;28;20498;-76
2023/12/13 09:26:50;;;;;;;1999.90;999.90;;;10.70;99.90;;;;;;5053754;28;20413;-75
2023/12/13 09:29:16;;;;;;;1999.90;999.90;;;10.80;99.90;;;;;;5050743;28;20437;-73
2023/12/13 09:31:45;;;;;;;1999.90;999.90;;;10.70;99.90;;;;;;5053038;28;21022;-75
2023/12/13 09:34:12;;;;;;;1999.90;999.90;;;10.60;99.90;;;;;;5053225;28;20487;-74
2023/12/13 09:36:40;;;;;;;1999.90;999.90;;;10.60;99.90;;;;;;5051724;28;20432;-75
2023/12/13 09:39:07;;;;;;;1999.90;999.90;;;10.50;99.90;;;;;;5053489;28;20516;-76
2023/12/13 09:41:54;;;;;;;1999.90;999.90;;;10.50;99.90;;;;;;5053879;28;20467;-76
2023/12/13 09:44:22;;;;;;;1999.90;999.90;;;10.60;99.90;;;;;;5037596;28;20935;-76
2023/12/13 09:46:52;;;;;;;1999.90;999.90;;;10.50;99.90;;;;;;5053471;28;20775;-76
2023/12/13 09:49:20;;;;;;;1999.90;999.90;;;10.50;99.90;;;;;;5045043;28;20895;-76
2023/12/13 09:51:50;;;;;;;1999.90;999.90;;;10.40;99.90;;;;;;5055853;28;20432;-76
2023/12/13 09:54:17;;;;;;;1999.90;999.90;;;10.50;99.90;;;;;;5055858;28;20747;-75
2023/12/13 09:56:43;;;;;;;1999.90;999.90;;;10.40;99.90;;;;;;5052724;28;20919;-76
2023/12/13 09:59:12;;;;;;;1999.90;999.90;;;10.40;99.90;;;;;;5052679;28;20405;-75
2023/12/13 10:01:39;;;;;;;1999.90;999.90;;;10.50;99.90;;;;;;5051778;28;20463;-74
2023/12/13 10:04:07;;;;;;;1999.90;999.90;;;10.50;99.90;;;;;;5051569;28;20444;-75
2023/12/13 10:06:33;;;;;;;1999.90;999.90;;;10.60;99.90;;;;;;5052309;28;20406;-76
2023/12/13 10:09:01;;;;;;;1999.90;999.90;;;10.50;99.90;;;;;;5052077;28;20405;-75
2023/12/13 10:11:28;;;;;;;1999.90;999.90;;;10.50;99.90;;;;;;5052746;28;20888;-75
2023/12/13 10:13:56;;;;;;;1999.90;999.90;;;10.50;99.90;;;;;;5051914;28;20437;-75
2023/12/13 10:16:22;;;;;;;1999.90;999.90;;;10.50;99.90;;;;;;5043184;28;20474;-74
2023/12/13 10:18:49;;;;;;;1999.90;999.90;;;10.40;99.90;;;;;;5052474;28;20459;-75
2023/12/13 10:21:17;;;;;;;1999.90;999.90;;;10.60;99.90;;;;;;5052635;28;20467;-74
2023/12/13 10:23:45;;;;;;;1999.90;999.90;;;10.60;99.90;;;;;;5052533;28;20410;-74
2023/12/13 10:26:13;;;;;;;1999.90;999.90;;;10.50;99.90;;;;;;5050049;28;20429;-76
2023/12/13 10:28:40;;;;;;;1999.90;999.90;;;10.50;99.90;;;;;;5054238;28;20510;-75
2023/12/13 10:31:06;;;;;;;1999.90;999.90;;;10.60;99.90;;;;;;5046401;28;20433;-75
2023/12/13 10:33:33;;;;;;;1999.90;999.90;;;10.80;99.90;;;;;;5051980;28;20429;-76
2023/12/13 10:36:01;;;;;;;1999.90;999.90;;;10.80;99.90;;;;;;5052263;28;20415;-74
2023/12/13 10:38:31;;;;;;;1999.90;999.90;;;10.80;99.90;;;;;;5048153;28;20434;-74
2023/12/13 10:41:00;;;;;;;1999.90;999.90;;;10.80;99.90;;;;;;5051173;28;20483;-76
2023/12/13 10:43:28;;;;;;;1999.90;999.90;;;10.90;99.90;;;;;;5050842;28;20430;-76
2023/12/13 10:45:59;;;;;;;1999.90;999.90;;;10.90;99.90;;;;;;5052388;28;20471;-74
2023/12/13 10:48:37;;;;;;;1999.90;999.90;;;10.90;99.90;;;;;;5051860;28;20420;-75
2023/12/13 10:51:04;;;;;;;1999.90;999.90;;;11.00;99.90;;;;;;5049902;28;20413;-74
2023/12/13 10:53:34;;;;;;;1999.90;999.90;;;11.40;99.90;;;;;;5051612;28;20479;-75
2023/12/13 10:56:02;;;;;;;1999.90;999.90;;;11.20;99.90;;;;;;5050913;28;20449;-74
2023/12/13 10:58:29;;;;;;;1999.90;999.90;;;11.10;99.90;;;;;;5051147;28;20425;-76
2023/12/13 11:00:58;;;;;;;1999.90;999.90;;;11.20;99.90;;;;;;5052718;28;20422;-75
2023/12/13 11:03:35;;;;;;;1999.90;999.90;;;11.10;99.90;;;;;;5051668;28;20449;-74
2023/12/13 11:06:04;;;;;;;1999.90;999.90;;;11.10;99.90;;;;;;5042948;28;20508;-76
2023/12/13 11:08:39;;;;;;;1999.90;999.90;;;11.30;99.90;;;;;;5051873;28;20602;-76
2023/12/13 11:11:09;;;;;;;1999.90;999.90;;;11.30;99.90;;;;;;5051943;28;20838;-74
2023/12/13 11:13:39;;;;;;;1999.90;999.90;;;11.30;99.90;;;;;;5050591;28;20540;-76
2023/12/13 11:16:18;;;;;;;1999.90;999.90;;;11.30;99.90;;;;;;5043335;28;20516;-75
2023/12/13 11:18:46;;;;;;;1999.90;999.90;;;11.30;99.90;;;;;;5051159;28;20451;-75
2023/12/13 11:21:22;;;;;;;1999.90;999.90;;;11.40;99.90;;;;;;5048367;28;20857;-77
2023/12/13 11:23:50;;;;;;;1999.90;999.90;;;11.30;99.90;;;;;;5047240;28;20828;-77
2023/12/13 11:26:19;;;;;;;1999.90;999.90;;;11.30;99.90;;;;;;5047992;28;20422;-76
2023/12/13 11:28:50;;;;;;;1999.90;999.90;;;11.20;99.90;;;;;;5040584;28;20831;-76
2023/12/13 11:31:19;;;;;;;1999.90;999.90;;;11.10;99.90;;;;;;5045476;28;20440;-77
2023/12/13 11:33:48;;;;;;;1999.90;999.90;;;11.10;99.90;;;;;;5051314;28;20417;-77
2023/12/13 11:36:18;;;;;;;1999.90;999.90;;;11.20;99.90;;;;;;5050878;28;20417;-75
2023/12/13 11:38:45;;;;;;;1999.90;999.90;;;11.20;99.90;;;;;;5050564;28;20547;-76
2023/12/13 11:41:14;;;;;;;1999.90;999.90;;;11.20;99.90;;;;;;5051470;28;20424;-75
2023/12/13 11:43:41;;;;;;;1999.90;999.90;;;11.10;99.90;;;;;;5045938;28;20429;-76
2023/12/13 11:46:09;;;;;;;1999.90;999.90;;;11.00;99.90;;;;;;5049968;28;20417;-76
2023/12/13 11:48:36;;;;;;;1999.90;999.90;;;11.10;99.90;;;;;;5050014;28;20414;-76
2023/12/13 11:51:03;;;;;;;1999.90;999.90;;;11.10;99.90;;;;;;5049709;28;20414;-76
2023/12/13 11:53:30;;;;;;;1999.90;999.90;;;10.90;99.90;;;;;;5049804;28;20414;-76
2023/12/13 11:55:57;;;;;;;1999.90;999.90;;;10.70;99.90;;;;;;5050457;28;20528;-75
2023/12/13 11:58:28;;;;;;;1999.90;999.90;;;10.70;99.90;;;;;;5048333;28;20433;-75
2023/12/13 12:00:54;;;;;;;1999.90;999.90;;;10.70;99.90;;;;;;5049707;28;20406;-75
2023/12/13 12:03:21;;;;;;;1999.90;999.90;;;10.70;99.90;;;;;;5050046;28;20854;-76
2023/12/13 12:05:49;;;;;;;1999.90;999.90;;;10.80;99.90;;;;;;5046183;28;20486;-75